sensor_id;sensor_type;location;lat;lon;timestamp;P1;durP1;ratioP1;P2;durP2;ratioP2
61640;SDS011;62201;49.966;8.342;2022-09-03T00:02:18;3.83;;;1.08;;
61640;SDS011;62201;49.966;8.342;2022-09-03T00:13:16;1.77;;;1.05;;
61640;SDS011;62201;49.966;8.342;2022-09-03T00:18:15;3.40;;;0.90;;
61640;SDS011;62201;49.966;8.342;2022-09-03T00:20:45;3.13;;;0.75;;
61640;SDS011;62201;49.966;8.342;2022-09-03T00:23:23;5.97;;;0.90;;
61640;SDS011;62201;49.966;8.342;2022-09-03T00:25:57;1.88;;;0.98;;
61640;SDS011;62201;49.966;8.342;2022-09-03T00:28:27;3.35;;;0.80;;
61640;SDS011;62201;49.966;8.342;2022-09-03T00:31:18;3.85;;;1.02;;
61640;SDS011;62201;49.966;8.342;2022-09-03T00:33:51;3.38;;;0.98;;
61640;SDS011;62201;49.966;8.342;2022-09-03T00:36:24;6.32;;;1.08;;
61640;SDS011;62201;49.966;8.342;2022-09-03T00:38:56;1.83;;;0.88;;
61640;SDS011;62201;49.966;8.342;2022-09-03T00:41:32;4.38;;;0.80;;
61640;SDS011;62201;49.966;8.342;2022-09-03T00:53:03;6.13;;;0.88;;
61640;SDS011;62201;49.966;8.342;2022-09-03T00:55:38;2.25;;;0.75;;
61640;SDS011;62201;49.966;8.342;2022-09-03T01:01:27;4.70;;;0.68;;
61640;SDS011;62201;49.966;8.342;2022-09-03T01:04:30;2.13;;;0.90;;
61640;SDS011;62201;49.966;8.342;2022-09-03T01:07:19;2.22;;;0.80;;
61640;SDS011;62201;49.966;8.342;2022-09-03T01:15:53;3.10;;;0.70;;
61640;SDS011;62201;49.966;8.342;2022-09-03T01:18:41;4.38;;;0.95;;
61640;SDS011;62201;49.966;8.342;2022-09-03T01:21:44;6.90;;;0.80;;
61640;SDS011;62201;49.966;8.342;2022-09-03T01:27:29;5.80;;;0.90;;
61640;SDS011;62201;49.966;8.342;2022-09-03T01:30:19;3.40;;;0.80;;
61640;SDS011;62201;49.966;8.342;2022-09-03T01:33:06;4.55;;;0.80;;
61640;SDS011;62201;49.966;8.342;2022-09-03T01:35:47;3.83;;;0.80;;
61640;SDS011;62201;49.966;8.342;2022-09-03T01:38:31;1.20;;;0.70;;
61640;SDS011;62201;49.966;8.342;2022-09-03T01:41:07;2.33;;;0.98;;
61640;SDS011;62201;49.966;8.342;2022-09-03T01:46:49;2.03;;;0.98;;
61640;SDS011;62201;49.966;8.342;2022-09-03T01:52:02;1.20;;;0.52;;
61640;SDS011;62201;49.966;8.342;2022-09-03T02:00:17;4.32;;;0.65;;
61640;SDS011;62201;49.966;8.342;2022-09-03T02:02:48;1.38;;;0.70;;
61640;SDS011;62201;49.966;8.342;2022-09-03T02:05:19;3.15;;;0.77;;
61640;SDS011;62201;49.966;8.342;2022-09-03T02:07:55;3.13;;;0.88;;
61640;SDS011;62201;49.966;8.342;2022-09-03T02:12:58;3.85;;;0.73;;
61640;SDS011;62201;49.966;8.342;2022-09-03T02:15:34;2.28;;;0.80;;
61640;SDS011;62201;49.966;8.342;2022-09-03T02:18:02;4.13;;;0.80;;
61640;SDS011;62201;49.966;8.342;2022-09-03T02:20:30;3.30;;;0.70;;
61640;SDS011;62201;49.966;8.342;2022-09-03T02:22:56;1.33;;;0.80;;
61640;SDS011;62201;49.966;8.342;2022-09-03T02:25:23;6.43;;;0.95;;
61640;SDS011;62201;49.966;8.342;2022-09-03T02:27:53;2.88;;;0.90;;
61640;SDS011;62201;49.966;8.342;2022-09-03T02:30:19;3.67;;;1.00;;
61640;SDS011;62201;49.966;8.342;2022-09-03T02:32:44;2.10;;;0.80;;
61640;SDS011;62201;49.966;8.342;2022-09-03T02:35:10;1.42;;;0.80;;
61640;SDS011;62201;49.966;8.342;2022-09-03T02:37:36;2.38;;;0.70;;
61640;SDS011;62201;49.966;8.342;2022-09-03T02:40:02;2.65;;;0.80;;
61640;SDS011;62201;49.966;8.342;2022-09-03T02:42:34;2.63;;;0.82;;
61640;SDS011;62201;49.966;8.342;2022-09-03T02:45:03;1.98;;;0.70;;
61640;SDS011;62201;49.966;8.342;2022-09-03T02:47:45;2.60;;;0.80;;
61640;SDS011;62201;49.966;8.342;2022-09-03T02:50:14;2.90;;;0.80;;
61640;SDS011;62201;49.966;8.342;2022-09-03T02:52:39;3.03;;;0.80;;
61640;SDS011;62201;49.966;8.342;2022-09-03T02:55:05;2.80;;;0.90;;
61640;SDS011;62201;49.966;8.342;2022-09-03T02:57:30;1.30;;;0.73;;
61640;SDS011;62201;49.966;8.342;2022-09-03T02:59:55;1.35;;;0.88;;
61640;SDS011;62201;49.966;8.342;2022-09-03T03:02:21;2.92;;;0.80;;
61640;SDS011;62201;49.966;8.342;2022-09-03T03:04:46;2.90;;;0.68;;
61640;SDS011;62201;49.966;8.342;2022-09-03T03:07:12;2.90;;;0.80;;
61640;SDS011;62201;49.966;8.342;2022-09-03T03:09:37;1.02;;;0.60;;
61640;SDS011;62201;49.966;8.342;2022-09-03T03:12:02;1.48;;;0.80;;
61640;SDS011;62201;49.966;8.342;2022-09-03T03:14:28;2.47;;;0.73;;
61640;SDS011;62201;49.966;8.342;2022-09-03T03:16:53;3.10;;;0.80;;
61640;SDS011;62201;49.966;8.342;2022-09-03T03:19:18;1.88;;;0.93;;
61640;SDS011;62201;49.966;8.342;2022-09-03T03:21:44;2.55;;;0.80;;
61640;SDS011;62201;49.966;8.342;2022-09-03T03:24:09;3.33;;;0.80;;
61640;SDS011;62201;49.966;8.342;2022-09-03T03:26:35;1.20;;;0.85;;
61640;SDS011;62201;49.966;8.342;2022-09-03T03:29:00;2.67;;;0.63;;
61640;SDS011;62201;49.966;8.342;2022-09-03T03:31:30;2.75;;;0.77;;
61640;SDS011;62201;49.966;8.342;2022-09-03T03:33:57;1.52;;;0.82;;
61640;SDS011;62201;49.966;8.342;2022-09-03T03:36:25;2.00;;;1.20;;
61640;SDS011;62201;49.966;8.342;2022-09-03T03:38:53;7.20;;;0.90;;
61640;SDS011;62201;49.966;8.342;2022-09-03T03:41:20;4.30;;;0.90;;
61640;SDS011;62201;49.966;8.342;2022-09-03T03:43:51;1.50;;;0.90;;
61640;SDS011;62201;49.966;8.342;2022-09-03T03:46:24;1.33;;;0.70;;
61640;SDS011;62201;49.966;8.342;2022-09-03T03:48:52;1.75;;;0.80;;
61640;SDS011;62201;49.966;8.342;2022-09-03T03:51:17;1.33;;;0.73;;
61640;SDS011;62201;49.966;8.342;2022-09-03T03:53:43;2.88;;;0.90;;
61640;SDS011;62201;49.966;8.342;2022-09-03T03:56:11;4.20;;;0.70;;
61640;SDS011;62201;49.966;8.342;2022-09-03T03:58:38;5.00;;;0.88;;
61640;SDS011;62201;49.966;8.342;2022-09-03T04:01:16;1.80;;;0.80;;
61640;SDS011;62201;49.966;8.342;2022-09-03T04:03:43;3.65;;;1.10;;
61640;SDS011;62201;49.966;8.342;2022-09-03T04:06:10;2.58;;;0.88;;
61640;SDS011;62201;49.966;8.342;2022-09-03T04:08:37;3.80;;;1.00;;
61640;SDS011;62201;49.966;8.342;2022-09-03T04:11:05;3.05;;;0.80;;
61640;SDS011;62201;49.966;8.342;2022-09-03T04:13:34;3.95;;;0.77;;
61640;SDS011;62201;49.966;8.342;2022-09-03T04:16:20;3.65;;;0.98;;
61640;SDS011;62201;49.966;8.342;2022-09-03T04:18:47;3.42;;;1.00;;
61640;SDS011;62201;49.966;8.342;2022-09-03T04:21:14;1.67;;;1.00;;
61640;SDS011;62201;49.966;8.342;2022-09-03T04:23:50;5.70;;;1.00;;
61640;SDS011;62201;49.966;8.342;2022-09-03T04:26:17;4.28;;;0.90;;
61640;SDS011;62201;49.966;8.342;2022-09-03T04:28:45;7.63;;;0.95;;
61640;SDS011;62201;49.966;8.342;2022-09-03T04:31:11;3.15;;;0.80;;
61640;SDS011;62201;49.966;8.342;2022-09-03T04:33:38;2.78;;;0.90;;
61640;SDS011;62201;49.966;8.342;2022-09-03T04:36:25;2.38;;;0.90;;
61640;SDS011;62201;49.966;8.342;2022-09-03T04:38:51;5.05;;;0.90;;
61640;SDS011;62201;49.966;8.342;2022-09-03T04:41:19;2.08;;;0.80;;
61640;SDS011;62201;49.966;8.342;2022-09-03T04:43:47;2.25;;;0.77;;
61640;SDS011;62201;49.966;8.342;2022-09-03T04:46:14;1.20;;;0.70;;
61640;SDS011;62201;49.966;8.342;2022-09-03T04:48:41;1.60;;;0.70;;
61640;SDS011;62201;49.966;8.342;2022-09-03T04:51:09;5.53;;;0.95;;
61640;SDS011;62201;49.966;8.342;2022-09-03T04:53:39;1.77;;;0.90;;
61640;SDS011;62201;49.966;8.342;2022-09-03T04:56:28;2.33;;;0.90;;
61640;SDS011;62201;49.966;8.342;2022-09-03T04:59:00;2.22;;;0.80;;
61640;SDS011;62201;49.966;8.342;2022-09-03T05:01:28;3.05;;;1.25;;
61640;SDS011;62201;49.966;8.342;2022-09-03T05:03:55;2.22;;;0.73;;
61640;SDS011;62201;49.966;8.342;2022-09-03T05:06:22;4.97;;;0.93;;
61640;SDS011;62201;49.966;8.342;2022-09-03T05:08:49;4.68;;;1.00;;
61640;SDS011;62201;49.966;8.342;2022-09-03T05:11:16;1.90;;;1.00;;
61640;SDS011;62201;49.966;8.342;2022-09-03T05:13:42;4.50;;;0.88;;
61640;SDS011;62201;49.966;8.342;2022-09-03T05:16:08;1.77;;;0.90;;
61640;SDS011;62201;49.966;8.342;2022-09-03T05:18:36;4.55;;;1.02;;
61640;SDS011;62201;49.966;8.342;2022-09-03T05:21:06;2.35;;;1.13;;
61640;SDS011;62201;49.966;8.342;2022-09-03T05:23:37;2.58;;;0.90;;
61640;SDS011;62201;49.966;8.342;2022-09-03T05:26:05;3.58;;;1.10;;
61640;SDS011;62201;49.966;8.342;2022-09-03T05:28:33;4.65;;;1.10;;
61640;SDS011;62201;49.966;8.342;2022-09-03T05:31:00;4.22;;;0.98;;
61640;SDS011;62201;49.966;8.342;2022-09-03T05:33:28;3.75;;;0.88;;
61640;SDS011;62201;49.966;8.342;2022-09-03T05:35:54;4.72;;;0.90;;
61640;SDS011;62201;49.966;8.342;2022-09-03T05:38:26;2.35;;;0.85;;
61640;SDS011;62201;49.966;8.342;2022-09-03T05:40:51;2.72;;;0.80;;
61640;SDS011;62201;49.966;8.342;2022-09-03T05:43:16;2.88;;;0.98;;
61640;SDS011;62201;49.966;8.342;2022-09-03T05:45:42;3.13;;;0.90;;
61640;SDS011;62201;49.966;8.342;2022-09-03T05:48:07;4.05;;;0.90;;
61640;SDS011;62201;49.966;8.342;2022-09-03T05:50:33;2.50;;;0.90;;
61640;SDS011;62201;49.966;8.342;2022-09-03T05:52:58;1.40;;;0.77;;
61640;SDS011;62201;49.966;8.342;2022-09-03T05:55:24;1.90;;;0.77;;
61640;SDS011;62201;49.966;8.342;2022-09-03T05:57:52;2.83;;;0.90;;
61640;SDS011;62201;49.966;8.342;2022-09-03T06:00:18;1.50;;;0.90;;
61640;SDS011;62201;49.966;8.342;2022-09-03T06:02:48;5.38;;;1.05;;
61640;SDS011;62201;49.966;8.342;2022-09-03T06:05:15;3.33;;;0.80;;
61640;SDS011;62201;49.966;8.342;2022-09-03T06:07:41;2.67;;;0.82;;
61640;SDS011;62201;49.966;8.342;2022-09-03T06:10:06;2.85;;;1.02;;
61640;SDS011;62201;49.966;8.342;2022-09-03T06:12:32;2.97;;;1.20;;
61640;SDS011;62201;49.966;8.342;2022-09-03T06:14:57;3.83;;;0.90;;
61640;SDS011;62201;49.966;8.342;2022-09-03T06:17:22;3.03;;;0.85;;
61640;SDS011;62201;49.966;8.342;2022-09-03T06:19:48;5.38;;;1.00;;
61640;SDS011;62201;49.966;8.342;2022-09-03T06:22:13;1.70;;;0.80;;
61640;SDS011;62201;49.966;8.342;2022-09-03T06:24:39;5.57;;;1.10;;
61640;SDS011;62201;49.966;8.342;2022-09-03T06:27:04;2.78;;;1.10;;
61640;SDS011;62201;49.966;8.342;2022-09-03T06:29:29;4.32;;;1.10;;
61640;SDS011;62201;49.966;8.342;2022-09-03T06:31:55;2.90;;;1.30;;
61640;SDS011;62201;49.966;8.342;2022-09-03T06:34:21;1.98;;;1.00;;
61640;SDS011;62201;49.966;8.342;2022-09-03T06:36:49;8.18;;;1.17;;
61640;SDS011;62201;49.966;8.342;2022-09-03T06:39:16;1.88;;;0.90;;
61640;SDS011;62201;49.966;8.342;2022-09-03T06:41:42;3.85;;;0.90;;
61640;SDS011;62201;49.966;8.342;2022-09-03T06:44:09;4.68;;;0.90;;
61640;SDS011;62201;49.966;8.342;2022-09-03T06:46:39;7.35;;;1.10;;
61640;SDS011;62201;49.966;8.342;2022-09-03T06:49:08;5.38;;;1.38;;
61640;SDS011;62201;49.966;8.342;2022-09-03T06:51:35;1.52;;;1.02;;
61640;SDS011;62201;49.966;8.342;2022-09-03T06:54:08;2.72;;;1.05;;
61640;SDS011;62201;49.966;8.342;2022-09-03T06:56:35;2.33;;;0.95;;
61640;SDS011;62201;49.966;8.342;2022-09-03T06:59:06;4.75;;;0.85;;
61640;SDS011;62201;49.966;8.342;2022-09-03T07:01:39;6.25;;;0.75;;
61640;SDS011;62201;49.966;8.342;2022-09-03T07:04:05;8.23;;;1.10;;
61640;SDS011;62201;49.966;8.342;2022-09-03T07:06:33;4.00;;;0.82;;
61640;SDS011;62201;49.966;8.342;2022-09-03T07:09:07;3.65;;;0.95;;
61640;SDS011;62201;49.966;8.342;2022-09-03T07:11:34;3.08;;;0.90;;
61640;SDS011;62201;49.966;8.342;2022-09-03T07:14:02;4.03;;;0.90;;
61640;SDS011;62201;49.966;8.342;2022-09-03T07:16:30;1.73;;;1.00;;
61640;SDS011;62201;49.966;8.342;2022-09-03T07:18:58;4.40;;;1.20;;
61640;SDS011;62201;49.966;8.342;2022-09-03T07:21:25;3.67;;;1.13;;
61640;SDS011;62201;49.966;8.342;2022-09-03T07:23:53;5.28;;;1.40;;
61640;SDS011;62201;49.966;8.342;2022-09-03T07:26:24;3.58;;;1.17;;
61640;SDS011;62201;49.966;8.342;2022-09-03T07:28:51;4.40;;;1.40;;
61640;SDS011;62201;49.966;8.342;2022-09-03T07:31:25;3.63;;;1.30;;
61640;SDS011;62201;49.966;8.342;2022-09-03T07:33:56;4.95;;;1.17;;
61640;SDS011;62201;49.966;8.342;2022-09-03T07:36:23;6.25;;;1.50;;
61640;SDS011;62201;49.966;8.342;2022-09-03T07:38:55;5.45;;;1.40;;
61640;SDS011;62201;49.966;8.342;2022-09-03T07:41:22;3.80;;;1.23;;
61640;SDS011;62201;49.966;8.342;2022-09-03T07:43:50;6.10;;;1.30;;
61640;SDS011;62201;49.966;8.342;2022-09-03T07:46:19;6.88;;;2.30;;
61640;SDS011;62201;49.966;8.342;2022-09-03T07:48:49;2.65;;;1.30;;
61640;SDS011;62201;49.966;8.342;2022-09-03T07:51:16;2.42;;;1.42;;
61640;SDS011;62201;49.966;8.342;2022-09-03T07:53:46;3.42;;;1.30;;
61640;SDS011;62201;49.966;8.342;2022-09-03T07:56:12;3.80;;;1.45;;
61640;SDS011;62201;49.966;8.342;2022-09-03T07:58:39;3.50;;;1.45;;
61640;SDS011;62201;49.966;8.342;2022-09-03T08:01:10;3.40;;;1.17;;
61640;SDS011;62201;49.966;8.342;2022-09-03T08:03:37;7.72;;;1.70;;
61640;SDS011;62201;49.966;8.342;2022-09-03T08:06:07;7.53;;;1.25;;
61640;SDS011;62201;49.966;8.342;2022-09-03T08:08:33;6.85;;;1.48;;
61640;SDS011;62201;49.966;8.342;2022-09-03T08:11:03;5.57;;;1.40;;
61640;SDS011;62201;49.966;8.342;2022-09-03T08:13:34;5.82;;;1.27;;
61640;SDS011;62201;49.966;8.342;2022-09-03T08:16:08;4.72;;;1.20;;
61640;SDS011;62201;49.966;8.342;2022-09-03T08:18:34;3.42;;;1.30;;
61640;SDS011;62201;49.966;8.342;2022-09-03T08:21:13;4.28;;;1.23;;
61640;SDS011;62201;49.966;8.342;2022-09-03T08:23:41;1.85;;;1.20;;
61640;SDS011;62201;49.966;8.342;2022-09-03T08:26:07;3.35;;;1.30;;
61640;SDS011;62201;49.966;8.342;2022-09-03T08:28:34;7.43;;;1.00;;
61640;SDS011;62201;49.966;8.342;2022-09-03T08:31:03;3.38;;;0.90;;
61640;SDS011;62201;49.966;8.342;2022-09-03T08:33:30;1.90;;;1.00;;
61640;SDS011;62201;49.966;8.342;2022-09-03T08:36:05;7.40;;;1.40;;
61640;SDS011;62201;49.966;8.342;2022-09-03T08:38:33;2.60;;;1.30;;
61640;SDS011;62201;49.966;8.342;2022-09-03T08:46:40;5.82;;;1.50;;
61640;SDS011;62201;49.966;8.342;2022-09-03T08:49:13;4.38;;;1.60;;
61640;SDS011;62201;49.966;8.342;2022-09-03T08:51:42;5.22;;;1.27;;
61640;SDS011;62201;49.966;8.342;2022-09-03T08:54:11;3.65;;;1.30;;
61640;SDS011;62201;49.966;8.342;2022-09-03T08:56:38;2.88;;;1.40;;
61640;SDS011;62201;49.966;8.342;2022-09-03T08:59:06;2.33;;;1.27;;
61640;SDS011;62201;49.966;8.342;2022-09-03T09:01:41;2.40;;;1.30;;
61640;SDS011;62201;49.966;8.342;2022-09-03T09:07:26;3.85;;;1.45;;
61640;SDS011;62201;49.966;8.342;2022-09-03T09:12:37;2.55;;;1.20;;
61640;SDS011;62201;49.966;8.342;2022-09-03T09:15:18;5.80;;;1.38;;
61640;SDS011;62201;49.966;8.342;2022-09-03T09:17:56;3.10;;;1.25;;
61640;SDS011;62201;49.966;8.342;2022-09-03T09:20:53;3.75;;;1.30;;
61640;SDS011;62201;49.966;8.342;2022-09-03T09:23:30;3.03;;;1.50;;
61640;SDS011;62201;49.966;8.342;2022-09-03T09:26:00;3.97;;;1.40;;
61640;SDS011;62201;49.966;8.342;2022-09-03T09:28:34;4.10;;;1.60;;
61640;SDS011;62201;49.966;8.342;2022-09-03T09:31:02;3.78;;;1.60;;
61640;SDS011;62201;49.966;8.342;2022-09-03T09:33:29;4.13;;;1.40;;
61640;SDS011;62201;49.966;8.342;2022-09-03T09:36:05;4.25;;;1.60;;
61640;SDS011;62201;49.966;8.342;2022-09-03T09:38:34;5.53;;;1.35;;
61640;SDS011;62201;49.966;8.342;2022-09-03T09:41:08;5.38;;;1.60;;
61640;SDS011;62201;49.966;8.342;2022-09-03T09:43:38;3.78;;;1.60;;
61640;SDS011;62201;49.966;8.342;2022-09-03T09:46:06;2.33;;;1.48;;
61640;SDS011;62201;49.966;8.342;2022-09-03T09:48:50;3.55;;;1.50;;
61640;SDS011;62201;49.966;8.342;2022-09-03T09:51:23;3.47;;;1.40;;
61640;SDS011;62201;49.966;8.342;2022-09-03T09:54:00;2.55;;;1.50;;
61640;SDS011;62201;49.966;8.342;2022-09-03T09:56:44;3.80;;;1.30;;
61640;SDS011;62201;49.966;8.342;2022-09-03T09:59:11;3.55;;;1.50;;
61640;SDS011;62201;49.966;8.342;2022-09-03T10:01:39;4.13;;;1.23;;
61640;SDS011;62201;49.966;8.342;2022-09-03T10:04:29;4.70;;;1.60;;
61640;SDS011;62201;49.966;8.342;2022-09-03T10:07:01;2.75;;;1.80;;
61640;SDS011;62201;49.966;8.342;2022-09-03T10:09:28;2.88;;;1.42;;
61640;SDS011;62201;49.966;8.342;2022-09-03T10:14:39;3.25;;;1.30;;
61640;SDS011;62201;49.966;8.342;2022-09-03T10:17:16;4.13;;;1.50;;
61640;SDS011;62201;49.966;8.342;2022-09-03T10:23:06;3.20;;;1.90;;
61640;SDS011;62201;49.966;8.342;2022-09-03T10:25:41;6.63;;;1.75;;
61640;SDS011;62201;49.966;8.342;2022-09-03T10:28:10;2.20;;;1.60;;
61640;SDS011;62201;49.966;8.342;2022-09-03T10:30:39;2.83;;;1.50;;
61640;SDS011;62201;49.966;8.342;2022-09-03T10:33:15;3.40;;;1.80;;
61640;SDS011;62201;49.966;8.342;2022-09-03T10:35:50;2.72;;;1.70;;
61640;SDS011;62201;49.966;8.342;2022-09-03T10:38:25;5.35;;;2.00;;
61640;SDS011;62201;49.966;8.342;2022-09-03T10:46:12;3.40;;;1.63;;
61640;SDS011;62201;49.966;8.342;2022-09-03T10:48:47;3.30;;;1.80;;
61640;SDS011;62201;49.966;8.342;2022-09-03T10:51:16;3.67;;;1.75;;
61640;SDS011;62201;49.966;8.342;2022-09-03T10:56:31;7.90;;;1.95;;
61640;SDS011;62201;49.966;8.342;2022-09-03T10:59:23;5.22;;;3.95;;
61640;SDS011;62201;49.966;8.342;2022-09-03T11:02:13;4.10;;;2.30;;
61640;SDS011;62201;49.966;8.342;2022-09-03T11:07:23;4.45;;;2.00;;
61640;SDS011;62201;49.966;8.342;2022-09-03T11:09:56;5.78;;;1.80;;
61640;SDS011;62201;49.966;8.342;2022-09-03T11:12:37;4.50;;;1.90;;
61640;SDS011;62201;49.966;8.342;2022-09-03T11:15:08;6.28;;;2.22;;
61640;SDS011;62201;49.966;8.342;2022-09-03T11:17:51;4.03;;;1.90;;
61640;SDS011;62201;49.966;8.342;2022-09-03T11:20:22;3.22;;;1.98;;
61640;SDS011;62201;49.966;8.342;2022-09-03T11:22:49;3.72;;;2.40;;
61640;SDS011;62201;49.966;8.342;2022-09-03T11:25:18;2.92;;;2.50;;
61640;SDS011;62201;49.966;8.342;2022-09-03T11:33:38;3.17;;;2.05;;
61640;SDS011;62201;49.966;8.342;2022-09-03T11:36:09;3.28;;;2.15;;
61640;SDS011;62201;49.966;8.342;2022-09-03T11:38:35;5.72;;;2.40;;
61640;SDS011;62201;49.966;8.342;2022-09-03T11:41:09;6.55;;;2.78;;
61640;SDS011;62201;49.966;8.342;2022-09-03T11:43:39;2.80;;;2.00;;
61640;SDS011;62201;49.966;8.342;2022-09-03T11:46:10;3.92;;;2.13;;
61640;SDS011;62201;49.966;8.342;2022-09-03T11:48:47;5.05;;;2.25;;
61640;SDS011;62201;49.966;8.342;2022-09-03T11:53:58;3.47;;;1.95;;
61640;SDS011;62201;49.966;8.342;2022-09-03T11:56:26;3.80;;;2.15;;
61640;SDS011;62201;49.966;8.342;2022-09-03T11:59:04;6.28;;;2.20;;
61640;SDS011;62201;49.966;8.342;2022-09-03T12:01:39;5.50;;;2.22;;
61640;SDS011;62201;49.966;8.342;2022-09-03T12:04:17;2.95;;;2.00;;
61640;SDS011;62201;49.966;8.342;2022-09-03T12:09:30;5.57;;;2.28;;
61640;SDS011;62201;49.966;8.342;2022-09-03T12:17:53;4.38;;;2.10;;
61640;SDS011;62201;49.966;8.342;2022-09-03T12:20:41;2.72;;;2.05;;
61640;SDS011;62201;49.966;8.342;2022-09-03T12:23:11;4.75;;;1.80;;
61640;SDS011;62201;49.966;8.342;2022-09-03T12:25:44;6.93;;;2.10;;
61640;SDS011;62201;49.966;8.342;2022-09-03T12:28:16;2.58;;;1.70;;
61640;SDS011;62201;49.966;8.342;2022-09-03T12:30:47;2.40;;;2.00;;
61640;SDS011;62201;49.966;8.342;2022-09-03T12:33:16;3.00;;;1.80;;
61640;SDS011;62201;49.966;8.342;2022-09-03T12:35:42;2.47;;;1.83;;
61640;SDS011;62201;49.966;8.342;2022-09-03T12:38:07;3.00;;;1.88;;
61640;SDS011;62201;49.966;8.342;2022-09-03T12:40:33;2.22;;;1.45;;
61640;SDS011;62201;49.966;8.342;2022-09-03T12:43:11;3.83;;;1.60;;
61640;SDS011;62201;49.966;8.342;2022-09-03T12:45:42;2.78;;;1.77;;
61640;SDS011;62201;49.966;8.342;2022-09-03T12:48:17;5.30;;;1.92;;
61640;SDS011;62201;49.966;8.342;2022-09-03T12:50:44;2.65;;;1.50;;
61640;SDS011;62201;49.966;8.342;2022-09-03T12:53:12;3.38;;;1.63;;
61640;SDS011;62201;49.966;8.342;2022-09-03T12:55:44;2.75;;;1.30;;
61640;SDS011;62201;49.966;8.342;2022-09-03T12:58:15;3.10;;;1.45;;
61640;SDS011;62201;49.966;8.342;2022-09-03T13:03:17;2.22;;;1.50;;
61640;SDS011;62201;49.966;8.342;2022-09-03T13:05:51;4.35;;;1.50;;
61640;SDS011;62201;49.966;8.342;2022-09-03T13:08:25;2.17;;;1.17;;
61640;SDS011;62201;49.966;8.342;2022-09-03T13:10:54;1.88;;;0.90;;
61640;SDS011;62201;49.966;8.342;2022-09-03T13:13:32;1.63;;;0.90;;
61640;SDS011;62201;49.966;8.342;2022-09-03T13:16:13;1.67;;;1.00;;
61640;SDS011;62201;49.966;8.342;2022-09-03T13:24:53;2.60;;;1.20;;
61640;SDS011;62201;49.966;8.342;2022-09-03T13:30:14;1.67;;;1.38;;
61640;SDS011;62201;49.966;8.342;2022-09-03T13:40:51;3.13;;;1.15;;
61640;SDS011;62201;49.966;8.342;2022-09-03T13:43:40;2.15;;;1.20;;
61640;SDS011;62201;49.966;8.342;2022-09-03T13:46:11;1.15;;;0.98;;
61640;SDS011;62201;49.966;8.342;2022-09-03T13:48:42;1.95;;;1.30;;
61640;SDS011;62201;49.966;8.342;2022-09-03T13:51:39;1.30;;;1.00;;
61640;SDS011;62201;49.966;8.342;2022-09-03T13:54:22;1.90;;;1.50;;
61640;SDS011;62201;49.966;8.342;2022-09-03T13:59:45;2.25;;;1.40;;
61640;SDS011;62201;49.966;8.342;2022-09-03T14:02:21;2.35;;;1.50;;
61640;SDS011;62201;49.966;8.342;2022-09-03T14:05:07;2.42;;;1.35;;
61640;SDS011;62201;49.966;8.342;2022-09-03T14:13:20;4.03;;;1.60;;
61640;SDS011;62201;49.966;8.342;2022-09-03T14:15:58;2.63;;;1.70;;
61640;SDS011;62201;49.966;8.342;2022-09-03T14:18:34;1.58;;;1.45;;
61640;SDS011;62201;49.966;8.342;2022-09-03T14:21:08;2.28;;;1.73;;
61640;SDS011;62201;49.966;8.342;2022-09-03T14:23:44;1.65;;;1.50;;
61640;SDS011;62201;49.966;8.342;2022-09-03T14:26:16;1.60;;;1.33;;
61640;SDS011;62201;49.966;8.342;2022-09-03T14:28:48;1.60;;;1.30;;
61640;SDS011;62201;49.966;8.342;2022-09-03T14:31:36;1.75;;;1.30;;
61640;SDS011;62201;49.966;8.342;2022-09-03T14:47:45;1.83;;;1.40;;
61640;SDS011;62201;49.966;8.342;2022-09-03T14:50:31;2.92;;;1.70;;
61640;SDS011;62201;49.966;8.342;2022-09-03T14:53:30;2.67;;;1.50;;
61640;SDS011;62201;49.966;8.342;2022-09-03T14:59:14;1.58;;;1.23;;
61640;SDS011;62201;49.966;8.342;2022-09-03T15:04:51;4.28;;;1.52;;
61640;SDS011;62201;49.966;8.342;2022-09-03T15:07:35;1.50;;;1.20;;
61640;SDS011;62201;49.966;8.342;2022-09-03T15:10:25;1.55;;;1.23;;
61640;SDS011;62201;49.966;8.342;2022-09-03T15:13:15;2.83;;;1.52;;
61640;SDS011;62201;49.966;8.342;2022-09-03T15:20:51;2.75;;;1.40;;
61640;SDS011;62201;49.966;8.342;2022-09-03T15:23:19;2.30;;;1.30;;
61640;SDS011;62201;49.966;8.342;2022-09-03T15:25:57;1.80;;;1.52;;
61640;SDS011;62201;49.966;8.342;2022-09-03T15:34:12;2.00;;;1.40;;
61640;SDS011;62201;49.966;8.342;2022-09-03T15:36:47;2.17;;;1.48;;
61640;SDS011;62201;49.966;8.342;2022-09-03T15:39:27;4.93;;;1.48;;
61640;SDS011;62201;49.966;8.342;2022-09-03T15:42:03;2.63;;;1.38;;
61640;SDS011;62201;49.966;8.342;2022-09-03T15:44:37;5.88;;;1.58;;
61640;SDS011;62201;49.966;8.342;2022-09-03T15:47:27;2.50;;;1.40;;
61640;SDS011;62201;49.966;8.342;2022-09-03T15:53:00;1.75;;;1.48;;
61640;SDS011;62201;49.966;8.342;2022-09-03T15:55:36;1.52;;;1.20;;
61640;SDS011;62201;49.966;8.342;2022-09-03T15:58:07;4.38;;;1.33;;
61640;SDS011;62201;49.966;8.342;2022-09-03T16:01:02;2.30;;;1.50;;
61640;SDS011;62201;49.966;8.342;2022-09-03T16:03:36;3.13;;;1.60;;
61640;SDS011;62201;49.966;8.342;2022-09-03T16:14:45;2.65;;;1.20;;
61640;SDS011;62201;49.966;8.342;2022-09-03T16:17:31;2.10;;;1.02;;
61640;SDS011;62201;49.966;8.342;2022-09-03T16:20:05;1.98;;;1.00;;
61640;SDS011;62201;49.966;8.342;2022-09-03T16:22:48;2.47;;;0.43;;
61640;SDS011;62201;49.966;8.342;2022-09-03T16:25:24;1.13;;;0.35;;
61640;SDS011;62201;49.966;8.342;2022-09-03T16:33:23;1.52;;;0.38;;
61640;SDS011;62201;49.966;8.342;2022-09-03T16:39:05;2.17;;;0.55;;
61640;SDS011;62201;49.966;8.342;2022-09-03T16:47:26;3.78;;;0.70;;
61640;SDS011;62201;49.966;8.342;2022-09-03T16:50:14;4.32;;;0.82;;
61640;SDS011;62201;49.966;8.342;2022-09-03T16:53:12;3.13;;;0.88;;
61640;SDS011;62201;49.966;8.342;2022-09-03T17:04:22;4.95;;;0.90;;
61640;SDS011;62201;49.966;8.342;2022-09-03T17:07:17;3.67;;;0.80;;
61640;SDS011;62201;49.966;8.342;2022-09-03T17:15:48;4.00;;;0.70;;
61640;SDS011;62201;49.966;8.342;2022-09-03T17:18:55;5.15;;;1.00;;
61640;SDS011;62201;49.966;8.342;2022-09-03T17:24:22;2.78;;;1.13;;
61640;SDS011;62201;49.966;8.342;2022-09-03T17:36:09;2.60;;;0.70;;
61640;SDS011;62201;49.966;8.342;2022-09-03T17:41:41;4.35;;;0.57;;
61640;SDS011;62201;49.966;8.342;2022-09-03T17:49:49;2.17;;;0.82;;
61640;SDS011;62201;49.966;8.342;2022-09-03T17:54:59;0.88;;;0.60;;
61640;SDS011;62201;49.966;8.342;2022-09-03T17:57:39;2.50;;;0.57;;
61640;SDS011;62201;49.966;8.342;2022-09-03T18:00:11;2.47;;;0.70;;
61640;SDS011;62201;49.966;8.342;2022-09-03T18:02:52;1.02;;;0.50;;
61640;SDS011;62201;49.966;8.342;2022-09-03T18:10:41;2.00;;;0.90;;
61640;SDS011;62201;49.966;8.342;2022-09-03T18:16:26;3.53;;;1.00;;
61640;SDS011;62201;49.966;8.342;2022-09-03T18:19:29;2.13;;;0.80;;
61640;SDS011;62201;49.966;8.342;2022-09-03T18:22:22;2.50;;;1.52;;
61640;SDS011;62201;49.966;8.342;2022-09-03T18:25:12;3.80;;;1.38;;
61640;SDS011;62201;49.966;8.342;2022-09-03T18:27:58;2.60;;;1.10;;
61640;SDS011;62201;49.966;8.342;2022-09-03T18:30:46;3.40;;;1.02;;
61640;SDS011;62201;49.966;8.342;2022-09-03T18:33:30;1.63;;;0.90;;
61640;SDS011;62201;49.966;8.342;2022-09-03T18:36:14;1.38;;;0.90;;
61640;SDS011;62201;49.966;8.342;2022-09-03T18:39:02;3.15;;;1.10;;
61640;SDS011;62201;49.966;8.342;2022-09-03T18:45:45;2.60;;;0.80;;
61640;SDS011;62201;49.966;8.342;2022-09-03T18:54:43;1.95;;;1.00;;
61640;SDS011;62201;49.966;8.342;2022-09-03T19:12:54;3.45;;;0.90;;
61640;SDS011;62201;49.966;8.342;2022-09-03T19:16:18;0.80;;;0.60;;
61640;SDS011;62201;49.966;8.342;2022-09-03T19:22:14;1.33;;;0.95;;
61640;SDS011;62201;49.966;8.342;2022-09-03T19:25:10;1.35;;;0.73;;
61640;SDS011;62201;49.966;8.342;2022-09-03T19:36:47;2.85;;;0.93;;
61640;SDS011;62201;49.966;8.342;2022-09-03T19:39:57;3.47;;;1.10;;
61640;SDS011;62201;49.966;8.342;2022-09-03T19:46:29;1.95;;;1.10;;
61640;SDS011;62201;49.966;8.342;2022-09-03T19:52:44;5.18;;;1.02;;